sensor_id;sensor_type;location;lat;lon;timestamp;temperature;humidity
17986;DHT22;9118;48.122;11.546;2023-04-03T00:01:00;4.60;99.90
17986;DHT22;9118;48.122;11.546;2023-04-03T00:03:27;5.40;99.90
17986;DHT22;9118;48.122;11.546;2023-04-03T00:05:56;5.40;99.90
17986;DHT22;9118;48.122;11.546;2023-04-03T00:08:23;5.20;99.90
17986;DHT22;9118;48.122;11.546;2023-04-03T00:10:50;5.30;99.90
17986;DHT22;9118;48.122;11.546;2023-04-03T00:13:17;5.40;99.90
17986;DHT22;9118;48.122;11.546;2023-04-03T00:15:44;5.20;99.90
17986;DHT22;9118;48.122;11.546;2023-04-03T00:18:11;5.70;99.90
17986;DHT22;9118;48.122;11.546;2023-04-03T00:20:38;5.30;99.90
17986;DHT22;9118;48.122;11.546;2023-04-03T00:23:07;5.30;99.90
17986;DHT22;9118;48.122;11.546;2023-04-03T00:25:34;5.50;99.90
17986;DHT22;9118;48.122;11.546;2023-04-03T00:28:02;5.30;99.90
17986;DHT22;9118;48.122;11.546;2023-04-03T00:30:29;5.20;99.90
17986;DHT22;9118;48.122;11.546;2023-04-03T00:32:58;4.60;99.90
17986;DHT22;9118;48.122;11.546;2023-04-03T00:35:26;5.40;99.90
17986;DHT22;9118;48.122;11.546;2023-04-03T00:37:55;5.30;99.90
17986;DHT22;9118;48.122;11.546;2023-04-03T00:40:24;5.30;99.90
17986;DHT22;9118;48.122;11.546;2023-04-03T00:42:56;6.10;99.90
17986;DHT22;9118;48.122;11.546;2023-04-03T00:45:33;5.30;99.90
17986;DHT22;9118;48.122;11.546;2023-04-03T00:48:01;5.60;99.90
17986;DHT22;9118;48.122;11.546;2023-04-03T00:50:31;5.30;99.90
17986;DHT22;9118;48.122;11.546;2023-04-03T00:53:00;5.50;99.90
17986;DHT22;9118;48.122;11.546;2023-04-03T00:55:29;5.20;99.90
17986;DHT22;9118;48.122;11.546;2023-04-03T00:57:57;5.20;99.90
17986;DHT22;9118;48.122;11.546;2023-04-03T01:00:24;5.20;99.90
17986;DHT22;9118;48.122;11.546;2023-04-03T01:02:52;5.10;99.90
17986;DHT22;9118;48.122;11.546;2023-04-03T01:05:21;5.10;99.90
17986;DHT22;9118;48.122;11.546;2023-04-03T01:07:49;5.90;99.90
17986;DHT22;9118;48.122;11.546;2023-04-03T01:10:17;5.20;99.90
17986;DHT22;9118;48.122;11.546;2023-04-03T01:12:48;5.70;99.90
17986;DHT22;9118;48.122;11.546;2023-04-03T01:15:19;5.40;99.90
17986;DHT22;9118;48.122;11.546;2023-04-03T01:17:48;5.10;99.90
17986;DHT22;9118;48.122;11.546;2023-04-03T01:23:31;5.10;99.90
17986;DHT22;9118;48.122;11.546;2023-04-03T01:26:00;5.00;99.90
17986;DHT22;9118;48.122;11.546;2023-04-03T01:28:30;5.90;99.90
17986;DHT22;9118;48.122;11.546;2023-04-03T01:31:02;5.10;99.90
17986;DHT22;9118;48.122;11.546;2023-04-03T01:33:33;6.50;99.90
17986;DHT22;9118;48.122;11.546;2023-04-03T01:36:00;5.10;99.90
17986;DHT22;9118;48.122;11.546;2023-04-03T01:38:27;6.20;99.90
17986;DHT22;9118;48.122;11.546;2023-04-03T01:40:54;6.10;99.90
17986;DHT22;9118;48.122;11.546;2023-04-03T01:43:22;5.20;99.90
17986;DHT22;9118;48.122;11.546;2023-04-03T01:45:49;5.40;99.90
17986;DHT22;9118;48.122;11.546;2023-04-03T01:48:18;5.60;99.90
17986;DHT22;9118;48.122;11.546;2023-04-03T01:50:46;5.60;99.90
17986;DHT22;9118;48.122;11.546;2023-04-03T01:53:13;5.20;99.90
17986;DHT22;9118;48.122;11.546;2023-04-03T01:55:40;5.20;99.90
17986;DHT22;9118;48.122;11.546;2023-04-03T01:58:07;5.20;99.90
17986;DHT22;9118;48.122;11.546;2023-04-03T02:00:34;5.50;99.90
17986;DHT22;9118;48.122;11.546;2023-04-03T02:03:02;5.70;99.90
17986;DHT22;9118;48.122;11.546;2023-04-03T02:05:29;5.20;99.90
17986;DHT22;9118;48.122;11.546;2023-04-03T02:07:57;5.20;99.90
17986;DHT22;9118;48.122;11.546;2023-04-03T02:10:25;5.20;99.90
17986;DHT22;9118;48.122;11.546;2023-04-03T02:12:52;5.20;99.90
17986;DHT22;9118;48.122;11.546;2023-04-03T02:15:19;5.50;99.90
17986;DHT22;9118;48.122;11.546;2023-04-03T02:17:48;5.20;99.90
17986;DHT22;9118;48.122;11.546;2023-04-03T02:20:15;5.10;99.90
17986;DHT22;9118;48.122;11.546;2023-04-03T02:22:42;5.20;99.90
17986;DHT22;9118;48.122;11.546;2023-04-03T02:25:11;5.20;99.90
17986;DHT22;9118;48.122;11.546;2023-04-03T02:27:38;4.80;99.90
17986;DHT22;9118;48.122;11.546;2023-04-03T02:30:06;5.30;99.90
17986;DHT22;9118;48.122;11.546;2023-04-03T02:32:36;5.20;99.90
17986;DHT22;9118;48.122;11.546;2023-04-03T02:35:03;5.30;99.90
17986;DHT22;9118;48.122;11.546;2023-04-03T02:37:30;5.20;99.90
17986;DHT22;9118;48.122;11.546;2023-04-03T02:39:57;4.80;99.90
17986;DHT22;9118;48.122;11.546;2023-04-03T02:42:26;4.20;99.90
17986;DHT22;9118;48.122;11.546;2023-04-03T02:44:53;5.40;99.90
17986;DHT22;9118;48.122;11.546;2023-04-03T02:47:20;5.10;99.90
17986;DHT22;9118;48.122;11.546;2023-04-03T02:49:47;4.00;99.90
17986;DHT22;9118;48.122;11.546;2023-04-03T02:52:15;5.20;99.90
17986;DHT22;9118;48.122;11.546;2023-04-03T02:54:42;5.00;99.90
17986;DHT22;9118;48.122;11.546;2023-04-03T02:57:09;5.70;99.90
17986;DHT22;9118;48.122;11.546;2023-04-03T02:59:37;5.60;99.90
17986;DHT22;9118;48.122;11.546;2023-04-03T03:02:06;5.40;99.90
17986;DHT22;9118;48.122;11.546;2023-04-03T03:04:33;6.10;99.90
17986;DHT22;9118;48.122;11.546;2023-04-03T03:07:01;5.20;99.90
17986;DHT22;9118;48.122;11.546;2023-04-03T03:09:28;5.10;99.90
17986;DHT22;9118;48.122;11.546;2023-04-03T03:11:55;5.30;99.90
17986;DHT22;9118;48.122;11.546;2023-04-03T03:14:22;5.10;99.90
17986;DHT22;9118;48.122;11.546;2023-04-03T03:16:50;5.10;99.90
17986;DHT22;9118;48.122;11.546;2023-04-03T03:19:17;5.10;99.90
17986;DHT22;9118;48.122;11.546;2023-04-03T03:21:44;5.20;99.90
17986;DHT22;9118;48.122;11.546;2023-04-03T03:24:11;5.10;99.90
17986;DHT22;9118;48.122;11.546;2023-04-03T03:26:38;5.90;99.90
17986;DHT22;9118;48.122;11.546;2023-04-03T03:29:05;5.70;99.90
17986;DHT22;9118;48.122;11.546;2023-04-03T03:31:32;5.10;99.90
17986;DHT22;9118;48.122;11.546;2023-04-03T03:34:01;5.40;99.90
17986;DHT22;9118;48.122;11.546;2023-04-03T03:36:28;5.20;99.90
17986;DHT22;9118;48.122;11.546;2023-04-03T03:38:56;5.20;99.90
17986;DHT22;9118;48.122;11.546;2023-04-03T03:41:23;5.80;99.90
17986;DHT22;9118;48.122;11.546;2023-04-03T03:43:50;5.10;99.90
17986;DHT22;9118;48.122;11.546;2023-04-03T03:46:17;6.30;99.90
17986;DHT22;9118;48.122;11.546;2023-04-03T03:48:44;5.00;99.90
17986;DHT22;9118;48.122;11.546;2023-04-03T03:51:12;5.00;99.90
17986;DHT22;9118;48.122;11.546;2023-04-03T03:53:39;5.00;99.90
17986;DHT22;9118;48.122;11.546;2023-04-03T03:56:06;5.10;99.90
17986;DHT22;9118;48.122;11.546;2023-04-03T03:58:34;5.70;99.90
17986;DHT22;9118;48.122;11.546;2023-04-03T04:01:01;5.10;99.90
17986;DHT22;9118;48.122;11.546;2023-04-03T04:03:28;5.10;99.90
17986;DHT22;9118;48.122;11.546;2023-04-03T04:05:55;5.00;99.90
17986;DHT22;9118;48.122;11.546;2023-04-03T04:08:24;5.00;99.90
17986;DHT22;9118;48.122;11.546;2023-04-03T04:10:51;5.40;99.90
17986;DHT22;9118;48.122;11.546;2023-04-03T04:13:18;5.00;99.90
17986;DHT22;9118;48.122;11.546;2023-04-03T04:15:45;5.40;99.90
17986;DHT22;9118;48.122;11.546;2023-04-03T04:18:12;5.20;99.90
17986;DHT22;9118;48.122;11.546;2023-04-03T04:20:39;5.90;99.90
17986;DHT22;9118;48.122;11.546;2023-04-03T04:23:06;5.00;99.90
17986;DHT22;9118;48.122;11.546;2023-04-03T04:25:34;5.00;99.90
17986;DHT22;9118;48.122;11.546;2023-04-03T04:28:01;5.20;99.90
17986;DHT22;9118;48.122;11.546;2023-04-03T04:30:28;5.10;99.90
17986;DHT22;9118;48.122;11.546;2023-04-03T04:32:55;5.00;99.90
17986;DHT22;9118;48.122;11.546;2023-04-03T04:35:22;4.40;99.90
17986;DHT22;9118;48.122;11.546;2023-04-03T04:37:49;5.40;99.90
17986;DHT22;9118;48.122;11.546;2023-04-03T04:40:16;6.20;99.90
17986;DHT22;9118;48.122;11.546;2023-04-03T04:42:46;5.20;99.90
17986;DHT22;9118;48.122;11.546;2023-04-03T04:45:13;5.00;99.90
17986;DHT22;9118;48.122;11.546;2023-04-03T04:47:41;6.20;99.90
17986;DHT22;9118;48.122;11.546;2023-04-03T04:50:09;5.00;99.90
17986;DHT22;9118;48.122;11.546;2023-04-03T04:52:37;5.00;99.90
17986;DHT22;9118;48.122;11.546;2023-04-03T04:55:06;5.00;99.90
17986;DHT22;9118;48.122;11.546;2023-04-03T04:57:33;5.00;99.90
17986;DHT22;9118;48.122;11.546;2023-04-03T05:00:03;5.50;99.90
17986;DHT22;9118;48.122;11.546;2023-04-03T05:02:30;5.30;99.90
17986;DHT22;9118;48.122;11.546;2023-04-03T05:04:57;5.60;99.90
17986;DHT22;9118;48.122;11.546;2023-04-03T05:07:24;4.90;99.90
17986;DHT22;9118;48.122;11.546;2023-04-03T05:09:51;5.00;99.90
17986;DHT22;9118;48.122;11.546;2023-04-03T05:12:18;5.10;99.90
17986;DHT22;9118;48.122;11.546;2023-04-03T05:14:45;5.00;99.90
17986;DHT22;9118;48.122;11.546;2023-04-03T05:17:13;4.90;99.90
17986;DHT22;9118;48.122;11.546;2023-04-03T05:19:41;5.10;99.90
17986;DHT22;9118;48.122;11.546;2023-04-03T05:22:08;5.90;99.90
17986;DHT22;9118;48.122;11.546;2023-04-03T05:24:34;5.20;99.90
17986;DHT22;9118;48.122;11.546;2023-04-03T05:27:01;5.00;99.90
17986;DHT22;9118;48.122;11.546;2023-04-03T05:29:28;5.00;99.90
17986;DHT22;9118;48.122;11.546;2023-04-03T05:31:55;5.60;99.90
17986;DHT22;9118;48.122;11.546;2023-04-03T05:34:24;5.60;99.90
17986;DHT22;9118;48.122;11.546;2023-04-03T05:36:51;5.10;99.90
17986;DHT22;9118;48.122;11.546;2023-04-03T05:39:18;5.10;99.90
17986;DHT22;9118;48.122;11.546;2023-04-03T05:41:45;5.10;99.90
17986;DHT22;9118;48.122;11.546;2023-04-03T05:44:12;5.80;99.90
17986;DHT22;9118;48.122;11.546;2023-04-03T05:46:39;4.90;99.90
17986;DHT22;9118;48.122;11.546;2023-04-03T05:49:06;5.50;99.90
17986;DHT22;9118;48.122;11.546;2023-04-03T05:51:36;5.50;99.90
17986;DHT22;9118;48.122;11.546;2023-04-03T05:54:09;5.70;99.90
17986;DHT22;9118;48.122;11.546;2023-04-03T05:56:39;5.30;99.90
17986;DHT22;9118;48.122;11.546;2023-04-03T05:59:06;5.10;99.90
17986;DHT22;9118;48.122;11.546;2023-04-03T06:01:33;4.90;99.90
17986;DHT22;9118;48.122;11.546;2023-04-03T06:04:01;5.20;99.90
17986;DHT22;9118;48.122;11.546;2023-04-03T06:06:45;5.70;99.90
17986;DHT22;9118;48.122;11.546;2023-04-03T06:09:13;5.30;99.90
17986;DHT22;9118;48.122;11.546;2023-04-03T06:11:40;5.30;99.90
17986;DHT22;9118;48.122;11.546;2023-04-03T06:14:08;6.00;99.90
17986;DHT22;9118;48.122;11.546;2023-04-03T06:16:36;5.40;99.90
17986;DHT22;9118;48.122;11.546;2023-04-03T06:19:03;6.00;99.90
17986;DHT22;9118;48.122;11.546;2023-04-03T06:21:31;5.20;99.90
17986;DHT22;9118;48.122;11.546;2023-04-03T06:24:00;5.20;99.90
17986;DHT22;9118;48.122;11.546;2023-04-03T06:26:27;5.30;99.90
17986;DHT22;9118;48.122;11.546;2023-04-03T06:28:54;5.40;99.90
17986;DHT22;9118;48.122;11.546;2023-04-03T06:31:21;5.60;99.90
17986;DHT22;9118;48.122;11.546;2023-04-03T06:33:48;5.50;99.90
17986;DHT22;9118;48.122;11.546;2023-04-03T06:36:18;5.50;99.90
17986;DHT22;9118;48.122;11.546;2023-04-03T06:38:47;5.60;99.90
17986;DHT22;9118;48.122;11.546;2023-04-03T06:41:16;5.60;99.90
17986;DHT22;9118;48.122;11.546;2023-04-03T06:43:43;5.90;99.90
17986;DHT22;9118;48.122;11.546;2023-04-03T06:46:14;5.80;99.90
17986;DHT22;9118;48.122;11.546;2023-04-03T06:48:43;6.00;99.90
17986;DHT22;9118;48.122;11.546;2023-04-03T06:51:17;5.70;99.90
17986;DHT22;9118;48.122;11.546;2023-04-03T06:53:45;5.90;99.90
17986;DHT22;9118;48.122;11.546;2023-04-03T06:56:12;6.90;99.90
17986;DHT22;9118;48.122;11.546;2023-04-03T06:58:41;6.30;99.90
17986;DHT22;9118;48.122;11.546;2023-04-03T07:01:08;5.40;99.90
17986;DHT22;9118;48.122;11.546;2023-04-03T07:03:36;6.00;99.90
17986;DHT22;9118;48.122;11.546;2023-04-03T07:06:04;6.00;99.90
17986;DHT22;9118;48.122;11.546;2023-04-03T07:08:33;6.40;99.90
17986;DHT22;9118;48.122;11.546;2023-04-03T07:11:00;6.20;99.90
17986;DHT22;9118;48.122;11.546;2023-04-03T07:13:27;6.20;99.90
17986;DHT22;9118;48.122;11.546;2023-04-03T07:15:56;7.20;99.90
17986;DHT22;9118;48.122;11.546;2023-04-03T07:18:23;6.70;99.90
17986;DHT22;9118;48.122;11.546;2023-04-03T07:20:50;6.40;99.90
17986;DHT22;9118;48.122;11.546;2023-04-03T07:23:17;6.50;99.90
17986;DHT22;9118;48.122;11.546;2023-04-03T07:25:45;6.60;99.90
17986;DHT22;9118;48.122;11.546;2023-04-03T07:28:12;6.80;99.90
17986;DHT22;9118;48.122;11.546;2023-04-03T07:30:43;6.80;99.90
17986;DHT22;9118;48.122;11.546;2023-04-03T07:33:13;6.70;99.90
17986;DHT22;9118;48.122;11.546;2023-04-03T07:35:41;6.70;99.90
17986;DHT22;9118;48.122;11.546;2023-04-03T07:38:08;6.90;99.90
17986;DHT22;9118;48.122;11.546;2023-04-03T07:40:36;6.70;99.90
17986;DHT22;9118;48.122;11.546;2023-04-03T07:43:04;6.80;99.90
17986;DHT22;9118;48.122;11.546;2023-04-03T07:45:32;6.80;99.90
17986;DHT22;9118;48.122;11.546;2023-04-03T07:48:01;6.90;99.90
17986;DHT22;9118;48.122;11.546;2023-04-03T07:50:29;6.90;99.90
17986;DHT22;9118;48.122;11.546;2023-04-03T07:52:57;7.30;99.90
17986;DHT22;9118;48.122;11.546;2023-04-03T07:55:25;6.80;99.90
17986;DHT22;9118;48.122;11.546;2023-04-03T07:57:52;6.80;99.90
17986;DHT22;9118;48.122;11.546;2023-04-03T08:00:19;6.80;99.90
17986;DHT22;9118;48.122;11.546;2023-04-03T08:02:46;7.10;99.90
17986;DHT22;9118;48.122;11.546;2023-04-03T08:05:16;6.60;99.90
17986;DHT22;9118;48.122;11.546;2023-04-03T08:07:45;6.60;99.90
17986;DHT22;9118;48.122;11.546;2023-04-03T08:10:12;7.10;99.90
17986;DHT22;9118;48.122;11.546;2023-04-03T08:12:39;6.30;99.90
17986;DHT22;9118;48.122;11.546;2023-04-03T08:15:07;6.30;99.90
17986;DHT22;9118;48.122;11.546;2023-04-03T08:17:35;6.40;99.90
17986;DHT22;9118;48.122;11.546;2023-04-03T08:20:03;6.40;99.90
17986;DHT22;9118;48.122;11.546;2023-04-03T08:22:32;6.40;99.90
17986;DHT22;9118;48.122;11.546;2023-04-03T08:25:00;6.40;99.90
17986;DHT22;9118;48.122;11.546;2023-04-03T08:27:28;6.40;99.90
17986;DHT22;9118;48.122;11.546;2023-04-03T08:29:55;6.40;99.90
17986;DHT22;9118;48.122;11.546;2023-04-03T08:32:22;6.50;99.90
17986;DHT22;9118;48.122;11.546;2023-04-03T08:34:49;6.70;99.90
17986;DHT22;9118;48.122;11.546;2023-04-03T08:37:16;6.70;99.90
17986;DHT22;9118;48.122;11.546;2023-04-03T08:39:45;6.90;99.90
17986;DHT22;9118;48.122;11.546;2023-04-03T08:42:19;7.00;99.90
17986;DHT22;9118;48.122;11.546;2023-04-03T08:44:57;7.50;99.90
17986;DHT22;9118;48.122;11.546;2023-04-03T08:47:30;7.50;99.90
17986;DHT22;9118;48.122;11.546;2023-04-03T08:50:05;7.30;99.90
17986;DHT22;9118;48.122;11.546;2023-04-03T08:52:36;7.20;99.90
17986;DHT22;9118;48.122;11.546;2023-04-03T08:55:07;7.30;99.90
17986;DHT22;9118;48.122;11.546;2023-04-03T08:57:43;7.40;99.90
17986;DHT22;9118;48.122;11.546;2023-04-03T09:00:17;7.40;99.90
17986;DHT22;9118;48.122;11.546;2023-04-03T09:02:46;7.50;99.90
17986;DHT22;9118;48.122;11.546;2023-04-03T09:05:15;7.60;99.90
17986;DHT22;9118;48.122;11.546;2023-04-03T09:07:45;7.60;99.90
17986;DHT22;9118;48.122;11.546;2023-04-03T09:10:14;7.80;99.90
17986;DHT22;9118;48.122;11.546;2023-04-03T09:12:46;7.60;99.90
17986;DHT22;9118;48.122;11.546;2023-04-03T09:15:18;7.90;99.90
17986;DHT22;9118;48.122;11.546;2023-04-03T09:18:02;7.70;99.90
17986;DHT22;9118;48.122;11.546;2023-04-03T09:20:39;7.80;99.90
17986;DHT22;9118;48.122;11.546;2023-04-03T09:23:17;8.20;99.90
17986;DHT22;9118;48.122;11.546;2023-04-03T09:25:46;7.90;99.90
17986;DHT22;9118;48.122;11.546;2023-04-03T09:28:15;8.00;99.90
17986;DHT22;9118;48.122;11.546;2023-04-03T09:30:42;8.10;99.90
17986;DHT22;9118;48.122;11.546;2023-04-03T09:33:09;8.20;99.90
17986;DHT22;9118;48.122;11.546;2023-04-03T09:35:38;8.30;99.90
17986;DHT22;9118;48.122;11.546;2023-04-03T09:38:19;8.00;99.90
17986;DHT22;9118;48.122;11.546;2023-04-03T09:40:48;8.80;99.90
17986;DHT22;9118;48.122;11.546;2023-04-03T09:43:27;8.40;99.90
17986;DHT22;9118;48.122;11.546;2023-04-03T09:45:56;8.60;99.90
17986;DHT22;9118;48.122;11.546;2023-04-03T09:48:24;8.70;99.90
17986;DHT22;9118;48.122;11.546;2023-04-03T09:51:00;8.70;99.90
17986;DHT22;9118;48.122;11.546;2023-04-03T09:53:34;8.60;99.90
17986;DHT22;9118;48.122;11.546;2023-04-03T09:56:04;8.30;99.90
17986;DHT22;9118;48.122;11.546;2023-04-03T09:58:38;8.20;99.90
17986;DHT22;9118;48.122;11.546;2023-04-03T10:01:10;8.10;99.90
17986;DHT22;9118;48.122;11.546;2023-04-03T10:04:04;8.40;99.90
17986;DHT22;9118;48.122;11.546;2023-04-03T10:06:33;7.90;99.90
17986;DHT22;9118;48.122;11.546;2023-04-03T10:09:03;7.90;99.90
17986;DHT22;9118;48.122;11.546;2023-04-03T10:11:31;8.00;99.90
17986;DHT22;9118;48.122;11.546;2023-04-03T10:14:01;8.40;99.90
17986;DHT22;9118;48.122;11.546;2023-04-03T10:16:36;8.00;99.90
17986;DHT22;9118;48.122;11.546;2023-04-03T10:19:18;8.10;99.90
17986;DHT22;9118;48.122;11.546;2023-04-03T10:21:55;8.00;99.90
17986;DHT22;9118;48.122;11.546;2023-04-03T10:24:28;8.10;99.90
17986;DHT22;9118;48.122;11.546;2023-04-03T10:27:02;8.10;99.90
17986;DHT22;9118;48.122;11.546;2023-04-03T10:29:40;8.00;99.90
17986;DHT22;9118;48.122;11.546;2023-04-03T10:32:43;7.90;99.90
17986;DHT22;9118;48.122;11.546;2023-04-03T10:35:30;7.80;99.90
17986;DHT22;9118;48.122;11.546;2023-04-03T10:38:05;7.90;99.90
17986;DHT22;9118;48.122;11.546;2023-04-03T10:40:41;7.90;99.90
17986;DHT22;9118;48.122;11.546;2023-04-03T10:43:17;7.90;99.90
17986;DHT22;9118;48.122;11.546;2023-04-03T10:45:53;7.80;99.90
17986;DHT22;9118;48.122;11.546;2023-04-03T10:48:39;7.60;99.90
17986;DHT22;9118;48.122;11.546;2023-04-03T10:51:14;7.40;99.90
17986;DHT22;9118;48.122;11.546;2023-04-03T10:53:47;7.30;99.90
17986;DHT22;9118;48.122;11.546;2023-04-03T10:56:21;7.50;99.90
17986;DHT22;9118;48.122;11.546;2023-04-03T10:58:54;7.10;99.90
17986;DHT22;9118;48.122;11.546;2023-04-03T11:01:26;6.70;99.90
17986;DHT22;9118;48.122;11.546;2023-04-03T11:03:57;7.80;99.90
17986;DHT22;9118;48.122;11.546;2023-04-03T11:06:30;6.90;99.90
17986;DHT22;9118;48.122;11.546;2023-04-03T11:09:02;6.80;99.90
17986;DHT22;9118;48.122;11.546;2023-04-03T11:11:35;7.10;99.90
17986;DHT22;9118;48.122;11.546;2023-04-03T11:14:09;7.90;99.90
17986;DHT22;9118;48.122;11.546;2023-04-03T11:16:43;6.90;99.90
17986;DHT22;9118;48.122;11.546;2023-04-03T11:19:16;7.10;99.90
17986;DHT22;9118;48.122;11.546;2023-04-03T11:21:51;7.10;99.90
17986;DHT22;9118;48.122;11.546;2023-04-03T11:24:24;7.10;99.90
17986;DHT22;9118;48.122;11.546;2023-04-03T11:26:54;7.10;99.90
17986;DHT22;9118;48.122;11.546;2023-04-03T11:29:24;7.30;99.90
17986;DHT22;9118;48.122;11.546;2023-04-03T11:32:08;7.20;99.90
17986;DHT22;9118;48.122;11.546;2023-04-03T11:34:39;8.00;99.90
17986;DHT22;9118;48.122;11.546;2023-04-03T11:37:15;7.50;99.90
17986;DHT22;9118;48.122;11.546;2023-04-03T11:39:51;7.80;99.90
17986;DHT22;9118;48.122;11.546;2023-04-03T11:42:28;7.90;99.90
17986;DHT22;9118;48.122;11.546;2023-04-03T11:48:02;8.40;99.90
17986;DHT22;9118;48.122;11.546;2023-04-03T11:50:44;8.50;99.90
17986;DHT22;9118;48.122;11.546;2023-04-03T11:53:32;8.70;99.90
17986;DHT22;9118;48.122;11.546;2023-04-03T11:59:15;8.80;99.90
17986;DHT22;9118;48.122;11.546;2023-04-03T12:01:46;8.70;99.90
17986;DHT22;9118;48.122;11.546;2023-04-03T12:04:17;8.70;99.90
17986;DHT22;9118;48.122;11.546;2023-04-03T12:10:16;8.60;99.90
17986;DHT22;9118;48.122;11.546;2023-04-03T12:12:56;8.60;99.90
17986;DHT22;9118;48.122;11.546;2023-04-03T12:15:52;8.90;99.90
17986;DHT22;9118;48.122;11.546;2023-04-03T12:18:54;8.70;99.90
17986;DHT22;9118;48.122;11.546;2023-04-03T12:21:24;8.70;99.90
17986;DHT22;9118;48.122;11.546;2023-04-03T12:24:24;9.30;99.90
17986;DHT22;9118;48.122;11.546;2023-04-03T12:27:04;8.90;99.90
17986;DHT22;9118;48.122;11.546;2023-04-03T12:29:40;9.40;99.90
17986;DHT22;9118;48.122;11.546;2023-04-03T12:32:17;9.20;99.90
17986;DHT22;9118;48.122;11.546;2023-04-03T12:35:10;9.20;99.90
17986;DHT22;9118;48.122;11.546;2023-04-03T12:41:13;9.10;99.90
17986;DHT22;9118;48.122;11.546;2023-04-03T12:43:50;9.00;99.90
17986;DHT22;9118;48.122;11.546;2023-04-03T12:46:24;9.00;99.90
17986;DHT22;9118;48.122;11.546;2023-04-03T12:48:54;9.00;99.90
17986;DHT22;9118;48.122;11.546;2023-04-03T12:51:27;9.30;99.90
17986;DHT22;9118;48.122;11.546;2023-04-03T12:54:02;9.10;99.90
17986;DHT22;9118;48.122;11.546;2023-04-03T12:56:31;9.20;99.90
17986;DHT22;9118;48.122;11.546;2023-04-03T12:59:14;9.30;99.90
17986;DHT22;9118;48.122;11.546;2023-04-03T13:01:42;9.20;99.90
17986;DHT22;9118;48.122;11.546;2023-04-03T13:04:10;9.20;99.90
17986;DHT22;9118;48.122;11.546;2023-04-03T13:06:40;9.20;99.90
17986;DHT22;9118;48.122;11.546;2023-04-03T13:09:19;9.40;99.90
17986;DHT22;9118;48.122;11.546;2023-04-03T13:11:49;9.20;99.90
17986;DHT22;9118;48.122;11.546;2023-04-03T13:14:19;9.80;99.90
17986;DHT22;9118;48.122;11.546;2023-04-03T13:16:54;9.40;99.90
17986;DHT22;9118;48.122;11.546;2023-04-03T13:19:23;9.60;99.90
17986;DHT22;9118;48.122;11.546;2023-04-03T13:21:53;9.70;99.90
17986;DHT22;9118;48.122;11.546;2023-04-03T13:24:23;9.80;99.90
17986;DHT22;9118;48.122;11.546;2023-04-03T13:26:51;10.30;99.90
17986;DHT22;9118;48.122;11.546;2023-04-03T13:29:23;10.20;99.90
17986;DHT22;9118;48.122;11.546;2023-04-03T13:31:53;10.50;99.90
17986;DHT22;9118;48.122;11.546;2023-04-03T13:34:22;10.40;99.90
17986;DHT22;9118;48.122;11.546;2023-04-03T13:36:57;9.70;99.90
17986;DHT22;9118;48.122;11.546;2023-04-03T13:39:28;10.00;99.90
17986;DHT22;9118;48.122;11.546;2023-04-03T13:41:57;10.10;99.90
17986;DHT22;9118;48.122;11.546;2023-04-03T13:44:29;9.80;99.90
17986;DHT22;9118;48.122;11.546;2023-04-03T13:46:57;9.40;99.90
17986;DHT22;9118;48.122;11.546;2023-04-03T13:49:32;9.60;99.90
17986;DHT22;9118;48.122;11.546;2023-04-03T13:52:00;9.20;99.90
17986;DHT22;9118;48.122;11.546;2023-04-03T13:54:32;9.00;99.90
17986;DHT22;9118;48.122;11.546;2023-04-03T13:57:00;8.90;99.90
17986;DHT22;9118;48.122;11.546;2023-04-03T13:59:30;8.80;99.90
17986;DHT22;9118;48.122;11.546;2023-04-03T14:02:14;8.70;99.90
17986;DHT22;9118;48.122;11.546;2023-04-03T14:04:49;8.70;99.90
17986;DHT22;9118;48.122;11.546;2023-04-03T14:07:19;8.60;99.90
17986;DHT22;9118;48.122;11.546;2023-04-03T14:09:48;8.70;99.90
17986;DHT22;9118;48.122;11.546;2023-04-03T14:12:18;8.90;99.90
17986;DHT22;9118;48.122;11.546;2023-04-03T14:14:46;8.90;99.90
17986;DHT22;9118;48.122;11.546;2023-04-03T14:17:16;8.90;99.90
17986;DHT22;9118;48.122;11.546;2023-04-03T14:19:44;9.00;99.90
17986;DHT22;9118;48.122;11.546;2023-04-03T14:22:15;9.10;99.90
17986;DHT22;9118;48.122;11.546;2023-04-03T14:24:43;9.20;99.90
17986;DHT22;9118;48.122;11.546;2023-04-03T14:27:16;9.30;99.90
17986;DHT22;9118;48.122;11.546;2023-04-03T14:29:44;9.40;99.90
17986;DHT22;9118;48.122;11.546;2023-04-03T14:32:12;9.50;99.90
17986;DHT22;9118;48.122;11.546;2023-04-03T14:34:40;9.80;99.90
17986;DHT22;9118;48.122;11.546;2023-04-03T14:37:11;10.10;99.90
17986;DHT22;9118;48.122;11.546;2023-04-03T14:39:38;10.50;99.90
17986;DHT22;9118;48.122;11.546;2023-04-03T14:42:09;11.00;99.90
17986;DHT22;9118;48.122;11.546;2023-04-03T14:44:38;11.60;99.90
17986;DHT22;9118;48.122;11.546;2023-04-03T14:47:08;11.80;99.90
17986;DHT22;9118;48.122;11.546;2023-04-03T14:49:35;11.60;99.90
17986;DHT22;9118;48.122;11.546;2023-04-03T14:52:03;12.00;99.90
17986;DHT22;9118;48.122;11.546;2023-04-03T14:54:33;12.00;99.90
17986;DHT22;9118;48.122;11.546;2023-04-03T14:57:00;11.80;99.90
17986;DHT22;9118;48.122;11.546;2023-04-03T14:59:28;11.50;99.90
17986;DHT22;9118;48.122;11.546;2023-04-03T15:01:57;11.20;99.90
17986;DHT22;9118;48.122;11.546;2023-04-03T15:04:23;10.80;99.90
17986;DHT22;9118;48.122;11.546;2023-04-03T15:06:52;10.20;99.90
17986;DHT22;9118;48.122;11.546;2023-04-03T15:09:21;10.40;99.90
17986;DHT22;9118;48.122;11.546;2023-04-03T15:11:48;10.00;99.90
17986;DHT22;9118;48.122;11.546;2023-04-03T15:14:16;9.60;99.90
17986;DHT22;9118;48.122;11.546;2023-04-03T15:16:43;9.30;99.90
17986;DHT22;9118;48.122;11.546;2023-04-03T15:19:13;9.10;99.90
17986;DHT22;9118;48.122;11.546;2023-04-03T15:21:40;8.90;99.90
17986;DHT22;9118;48.122;11.546;2023-04-03T15:24:09;8.90;99.90
17986;DHT22;9118;48.122;11.546;2023-04-03T15:26:36;8.80;99.90
17986;DHT22;9118;48.122;11.546;2023-04-03T15:29:04;8.70;99.90
17986;DHT22;9118;48.122;11.546;2023-04-03T15:31:32;8.80;99.90
17986;DHT22;9118;48.122;11.546;2023-04-03T15:33:59;8.90;99.90
17986;DHT22;9118;48.122;11.546;2023-04-03T15:36:27;8.80;99.90
17986;DHT22;9118;48.122;11.546;2023-04-03T15:38:54;8.80;99.90
17986;DHT22;9118;48.122;11.546;2023-04-03T15:41:27;8.90;99.90
17986;DHT22;9118;48.122;11.546;2023-04-03T15:43:54;8.70;99.90
17986;DHT22;9118;48.122;11.546;2023-04-03T15:46:21;8.80;99.90
17986;DHT22;9118;48.122;11.546;2023-04-03T15:48:48;8.80;99.90
17986;DHT22;9118;48.122;11.546;2023-04-03T15:51:15;8.50;99.90
17986;DHT22;9118;48.122;11.546;2023-04-03T15:53:44;9.00;99.90
17986;DHT22;9118;48.122;11.546;2023-04-03T15:56:12;9.60;99.90
17986;DHT22;9118;48.122;11.546;2023-04-03T15:58:39;10.70;99.90
17986;DHT22;9118;48.122;11.546;2023-04-03T16:01:08;11.20;99.90
17986;DHT22;9118;48.122;11.546;2023-04-03T16:03:36;11.20;99.90
17986;DHT22;9118;48.122;11.546;2023-04-03T16:06:04;11.10;99.90
17986;DHT22;9118;48.122;11.546;2023-04-03T16:08:31;10.80;99.90
17986;DHT22;9118;48.122;11.546;2023-04-03T16:11:00;10.60;99.90
17986;DHT22;9118;48.122;11.546;2023-04-03T16:13:27;10.40;99.90
17986;DHT22;9118;48.122;11.546;2023-04-03T16:15:55;10.30;99.90
17986;DHT22;9118;48.122;11.546;2023-04-03T16:18:22;10.10;99.90